createdAt,value
2019-01-18T00:01:19.345Z,2.85
2019-01-18T00:02:19.240Z,2.85
2019-01-18T00:03:19.885Z,2.78
2019-01-18T00:04:19.896Z,2.77
2019-01-18T00:05:19.382Z,2.83
2019-01-18T00:06:19.691Z,2.78
2019-01-18T00:07:20.087Z,2.78
2019-01-18T00:08:20.096Z,2.81
2019-01-18T00:09:20.465Z,2.77
2019-01-18T00:10:20.247Z,2.73
2019-01-18T00:11:20.377Z,2.83
2019-01-18T00:12:20.681Z,2.84
2019-01-18T00:13:20.415Z,2.87
2019-01-18T00:14:20.806Z,2.77
2019-01-18T00:15:21.159Z,2.85
2019-01-18T00:16:21.324Z,2.76
2019-01-18T00:17:21.047Z,2.78
2019-01-18T00:18:21.161Z,2.8
2019-01-18T00:19:21.618Z,2.67
2019-01-18T00:20:21.988Z,2.69
2019-01-18T00:21:21.729Z,2.62
2019-01-18T00:22:22.157Z,2.67
2019-01-18T00:23:22.403Z,2.67
2019-01-18T00:24:22.150Z,2.69
2019-01-18T00:25:22.499Z,2.69
2019-01-18T00:26:22.522Z,2.76
2019-01-18T00:27:22.677Z,2.77
2019-01-18T00:28:23.310Z,2.8
2019-01-18T00:29:29.436Z,2.76
2019-01-18T00:30:23.780Z,2.69
2019-01-18T00:31:23.784Z,2.66
2019-01-18T00:32:23.790Z,2.72
2019-01-18T00:33:23.317Z,2.76
2019-01-18T00:34:23.803Z,2.66
2019-01-18T00:35:23.582Z,2.7
2019-01-18T00:36:23.735Z,2.67
2019-01-18T00:37:23.765Z,2.65
2019-01-18T00:38:24.157Z,2.65
2019-01-18T00:39:24.561Z,2.52
2019-01-18T00:40:24.968Z,2.6
2019-01-18T00:41:24.492Z,2.55
2019-01-18T00:42:25.160Z,2.6
2019-01-18T00:43:25.589Z,2.58
2019-01-18T00:44:25.373Z,2.47
2019-01-18T00:45:25.518Z,2.54
2019-01-18T00:46:25.774Z,2.47
2019-01-18T00:47:25.640Z,2.49
2019-01-18T00:48:26.286Z,2.52
2019-01-18T00:49:26.050Z,2.58
2019-01-18T00:50:26.157Z,2.48
2019-01-18T00:51:26.510Z,2.48
2019-01-18T00:52:26.563Z,2.51
2019-01-18T00:53:26.924Z,2.58
2019-01-18T00:54:26.951Z,2.48
2019-01-18T00:55:26.811Z,2.42
2019-01-18T00:56:27.196Z,2.41
2019-01-18T00:57:27.810Z,2.44
2019-01-18T00:58:27.857Z,2.27
2019-01-18T00:59:28.208Z,2.33
2019-01-18T01:00:28.241Z,2.27
2019-01-18T01:01:28.005Z,2.16
2019-01-18T01:02:28.485Z,2.12
2019-01-18T01:03:28.654Z,2.11
2019-01-18T01:04:28.794Z,2.04
2019-01-18T01:05:29.154Z,2.11
2019-01-18T01:06:29.544Z,2.01
2019-01-18T01:07:29.909Z,2.01
2019-01-18T01:08:30.019Z,1.98
2019-01-18T01:09:30.452Z,1.97
2019-01-18T01:10:30.434Z,2.04
2019-01-18T01:11:30.527Z,1.94
2019-01-18T01:12:30.914Z,1.97
2019-01-18T01:13:30.967Z,1.84
2019-01-18T01:14:30.968Z,1.76
2019-01-18T01:15:30.723Z,1.61
2019-01-18T01:16:30.774Z,1.65
2019-01-18T01:17:31.143Z,1.48
2019-01-18T01:18:31.167Z,1.47
2019-01-18T01:19:31.241Z,1.46
2019-01-18T01:20:30.934Z,1.48
2019-01-18T01:21:30.993Z,1.46
2019-01-18T01:22:31.296Z,1.35
2019-01-18T01:23:31.710Z,1.4
2019-01-18T01:24:31.727Z,1.38
2019-01-18T01:25:31.483Z,1.29
2019-01-18T01:26:31.859Z,1.22
2019-01-18T01:27:32.016Z,1.28
2019-01-18T01:28:32.394Z,1.28
2019-01-18T01:29:32.154Z,1.14
2019-01-18T01:30:32.444Z,1.18
2019-01-18T01:31:32.856Z,1.22
2019-01-18T01:32:32.781Z,1.14
2019-01-18T01:33:33.198Z,1.14
2019-01-18T01:34:33.609Z,1.21
2019-01-18T01:35:33.616Z,1.12
2019-01-18T01:36:33.633Z,1.12
2019-01-18T01:37:34.058Z,1.11
2019-01-18T01:38:34.431Z,1.04
2019-01-18T01:39:34.437Z,1.11
2019-01-18T01:40:34.806Z,1.08
2019-01-18T01:41:34.823Z,1.02
2019-01-18T01:42:35.189Z,1.07
2019-01-18T01:43:35.205Z,1.07
2019-01-18T01:44:35.225Z,0.96
2019-01-18T01:45:35.275Z,0.97
2019-01-18T01:46:35.421Z,0.99
2019-01-18T01:47:35.788Z,0.99
2019-01-18T01:48:35.804Z,0.86
2019-01-18T01:49:35.830Z,0.93
2019-01-18T01:50:35.863Z,0.96
2019-01-18T01:51:35.602Z,0.89
2019-01-18T01:52:35.625Z,0.92
2019-01-18T01:53:36.226Z,1
2019-01-18T01:54:36.248Z,1.03
2019-01-18T01:55:36.291Z,1
2019-01-18T01:56:36.312Z,0.94
2019-01-18T01:57:36.061Z,1
2019-01-18T01:58:36.327Z,1.03
2019-01-18T01:59:36.382Z,1
2019-01-18T02:00:36.380Z,1.02
2019-01-18T02:01:36.528Z,1.07
2019-01-18T02:02:36.556Z,1.08
2019-01-18T02:03:37.209Z,0.99
2019-01-18T02:04:36.963Z,1.02
2019-01-18T02:05:37.077Z,0.94
2019-01-18T02:06:37.339Z,0.99
2019-01-18T02:07:37.741Z,0.9
2019-01-18T02:08:38.146Z,0.9
2019-01-18T02:09:38.174Z,0.9
2019-01-18T02:10:38.185Z,0.89
2019-01-18T02:11:38.070Z,0.94
2019-01-18T02:12:38.682Z,0.93
2019-01-18T02:13:38.434Z,0.86
2019-01-18T02:14:38.805Z,0.9
2019-01-18T02:15:38.944Z,0.9
2019-01-18T02:16:39.237Z,0.97
2019-01-18T02:17:39.238Z,0.85
2019-01-18T02:18:39.239Z,0.93
2019-01-18T02:19:39.264Z,0.85
2019-01-18T02:20:38.760Z,0.89
2019-01-18T02:21:39.395Z,0.85
2019-01-18T02:22:39.764Z,0.84
2019-01-18T02:23:40.103Z,0.85
2019-01-18T02:24:40.478Z,0.84
2019-01-18T02:25:40.258Z,0.84
2019-01-18T02:26:40.853Z,0.84
2019-01-18T02:27:40.879Z,0.9
2019-01-18T02:28:40.668Z,0.86
2019-01-18T02:29:40.690Z,0.89
2019-01-18T02:30:41.323Z,0.89
2019-01-18T02:31:41.346Z,0.9
2019-01-18T02:32:41.377Z,0.84
2019-01-18T02:33:41.501Z,0.86
2019-01-18T02:34:42.125Z,0.84
2019-01-18T02:35:42.552Z,0.84
2019-01-18T02:36:42.334Z,0.85
2019-01-18T02:37:42.420Z,0.89
2019-01-18T02:38:42.800Z,0.85
2019-01-18T02:39:42.818Z,0.86
2019-01-18T02:40:42.560Z,0.76
2019-01-18T02:41:42.849Z,0.81
2019-01-18T02:42:42.878Z,0.76
2019-01-18T02:43:42.898Z,0.76
2019-01-18T02:44:43.050Z,0.79
2019-01-18T02:45:43.204Z,0.75
2019-01-18T02:46:43.574Z,0.72
2019-01-18T02:47:43.794Z,0.67
2019-01-18T02:48:44.160Z,0.72
2019-01-18T02:49:44.249Z,0.67
2019-01-18T02:50:44.352Z,0.75
2019-01-18T02:51:43.995Z,0.72
2019-01-18T02:52:44.318Z,0.67
2019-01-18T02:53:44.677Z,0.66
2019-01-18T02:54:44.963Z,0.63
2019-01-18T02:55:44.984Z,0.56
2019-01-18T02:56:45.422Z,0.64
2019-01-18T02:57:45.776Z,0.5
2019-01-18T02:58:45.823Z,0.48
2019-01-18T02:59:45.853Z,0.47
